Time;durP1;ratioP1;P1;durP2;ratioP2;P2;SDS_P1;SDS_P2;PMS_P1;PMS_P2;Temp;Humidity;BMP_temperature;BMP_pressure;BME280_temperature;BME280_humidity;BME280_pressure;Samples;Min_cycle;Max_cycle;Signal;HPM_P1;HPM_P2
2023/01/22 00:02:07;;;;;;;24.13;9.88;;;0.90;99.90;;;;;;5020503;28;20033;-64
2023/01/22 00:04:33;;;;;;;20.63;8.90;;;0.90;99.90;;;;;;5033832;28;20070;-65
2023/01/22 00:06:59;;;;;;;28.00;10.82;;;1.00;99.90;;;;;;5029955;28;20479;-65
2023/01/22 00:09:24;;;;;;;26.48;10.30;;;0.90;99.90;;;;;;5024090;28;20045;-65
2023/01/22 00:11:50;;;;;;;27.52;10.82;;;0.90;99.90;;;;;;5034925;28;20029;-64
2023/01/22 00:14:16;;;;;;;23.17;9.95;;;0.90;99.90;;;;;;5030491;28;20036;-64
2023/01/22 00:16:43;;;;;;;28.50;11.00;;;0.90;99.90;;;;;;5026835;28;20036;-65
2023/01/22 00:19:09;;;;;;;26.08;11.13;;;0.80;99.90;;;;;;5037406;28;20029;-64
2023/01/22 00:21:34;;;;;;;22.40;11.25;;;0.80;99.90;;;;;;5030852;28;20067;-64
2023/01/22 00:24:00;;;;;;;23.48;10.77;;;0.70;99.90;;;;;;5026944;28;20388;-64
2023/01/22 00:26:26;;;;;;;32.38;12.20;;;0.70;99.90;;;;;;5031972;28;20029;-65
2023/01/22 00:28:52;;;;;;;30.98;12.55;;;0.70;99.90;;;;;;5031119;28;20513;-64
2023/01/22 00:31:18;;;;;;;27.92;13.05;;;0.60;99.90;;;;;;5021172;28;20033;-64
2023/01/22 00:33:45;;;;;;;30.17;12.50;;;0.60;99.90;;;;;;5023972;28;20495;-64
2023/01/22 00:36:16;;;;;;;25.02;11.48;;;0.60;99.90;;;;;;5027895;28;20483;-64
2023/01/22 00:38:42;;;;;;;30.92;14.43;;;0.60;99.90;;;;;;5021128;28;20101;-67
2023/01/22 00:41:08;;;;;;;32.95;13.82;;;0.50;99.90;;;;;;5027426;28;20017;-64
2023/01/22 00:43:37;;;;;;;33.92;13.93;;;0.50;99.90;;;;;;5025933;28;20449;-66
2023/01/22 00:46:03;;;;;;;27.48;12.25;;;0.40;99.90;;;;;;5030283;28;20028;-65
2023/01/22 00:48:29;;;;;;;27.55;13.18;;;0.40;99.90;;;;;;5027116;28;20025;-65
2023/01/22 00:50:55;;;;;;;31.52;13.10;;;0.40;99.90;;;;;;5023296;28;20036;-66
2023/01/22 00:53:21;;;;;;;27.73;13.10;;;0.40;99.90;;;;;;5009263;28;20045;-66
2023/01/22 00:55:55;;;;;;;29.27;13.95;;;0.30;99.90;;;;;;5028309;28;20052;-67
2023/01/22 00:58:21;;;;;;;26.67;13.20;;;0.30;99.90;;;;;;5035279;28;20037;-66
2023/01/22 01:00:46;;;;;;;28.57;13.27;;;0.30;99.90;;;;;;5027353;28;20040;-66
2023/01/22 01:03:30;;;;;;;27.92;12.90;;;0.30;99.90;;;;;;5032367;28;20025;-66
2023/01/22 01:06:09;;;;;;;27.70;12.77;;;0.30;99.90;;;;;;5026242;28;20108;-67
2023/01/22 01:08:37;;;;;;;31.17;12.57;;;0.30;99.90;;;;;;5019122;28;20087;-67
2023/01/22 01:11:05;;;;;;;28.83;15.00;;;0.30;99.90;;;;;;5028040;28;20032;-66
2023/01/22 01:13:37;;;;;;;25.15;11.82;;;0.30;99.90;;;;;;5007795;28;20030;-66
2023/01/22 01:16:14;;;;;;;25.03;12.50;;;0.30;99.90;;;;;;5021834;28;20087;-66
2023/01/22 01:18:41;;;;;;;30.88;11.68;;;0.30;99.90;;;;;;5017945;28;20037;-66
2023/01/22 01:21:07;;;;;;;29.60;12.23;;;0.30;99.90;;;;;;5021712;28;20017;-66
2023/01/22 01:23:34;;;;;;;23.70;11.43;;;0.30;99.90;;;;;;5018592;28;20034;-66
2023/01/22 01:26:04;;;;;;;25.45;12.63;;;0.20;99.90;;;;;;5026467;28;20070;-67
2023/01/22 01:28:29;;;;;;;27.77;11.13;;;0.20;99.90;;;;;;5026284;28;20029;-66
2023/01/22 01:30:55;;;;;;;27.23;11.68;;;0.20;99.90;;;;;;5028995;28;20127;-66
2023/01/22 01:33:21;;;;;;;22.67;10.00;;;0.10;99.90;;;;;;5025911;28;20025;-66
2023/01/22 01:35:46;;;;;;;22.15;10.80;;;0.10;99.90;;;;;;5026815;28;20022;-65
2023/01/22 01:38:12;;;;;;;25.88;11.32;;;0.10;99.90;;;;;;5021103;28;20033;-66
2023/01/22 01:40:42;;;;;;;24.90;11.15;;;0.10;99.90;;;;;;5016242;28;20518;-66
2023/01/22 01:43:16;;;;;;;19.40;9.60;;;0.10;99.90;;;;;;5023132;28;20018;-66
2023/01/22 01:45:41;;;;;;;19.10;9.97;;;0.10;99.90;;;;;;5015931;28;20037;-66
2023/01/22 01:48:14;;;;;;;19.38;10.38;;;0.10;99.90;;;;;;5020035;28;20032;-66
2023/01/22 01:50:45;;;;;;;23.95;10.50;;;0.10;99.90;;;;;;5017601;28;20033;-66
2023/01/22 01:53:10;;;;;;;23.75;10.35;;;0.10;99.90;;;;;;5005795;28;20491;-66
2023/01/22 01:55:38;;;;;;;18.30;9.23;;;0.10;99.90;;;;;;5018441;28;20060;-66
2023/01/22 01:58:09;;;;;;;20.70;9.85;;;0.10;99.90;;;;;;5015123;28;20045;-66
2023/01/22 02:00:38;;;;;;;17.10;8.55;;;0.10;99.90;;;;;;5019642;28;20111;-66
2023/01/22 02:03:04;;;;;;;23.05;11.15;;;0.10;99.90;;;;;;5017714;28;20486;-65
2023/01/22 02:05:36;;;;;;;18.98;9.38;;;0.10;99.90;;;;;;5017422;28;20083;-66
2023/01/22 02:08:02;;;;;;;18.92;9.85;;;0.10;99.90;;;;;;5014730;28;20029;-66
2023/01/22 02:10:28;;;;;;;20.75;9.00;;;0.20;99.90;;;;;;5012586;28;20041;-66
2023/01/22 02:12:56;;;;;;;22.05;10.68;;;0.20;99.90;;;;;;5015274;28;20065;-66
2023/01/22 02:15:22;;;;;;;18.45;8.93;;;0.20;99.90;;;;;;5022819;28;20459;-67
2023/01/22 02:17:48;;;;;;;21.83;8.73;;;0.20;99.90;;;;;;5023306;28;20084;-67
2023/01/22 02:20:14;;;;;;;20.80;9.65;;;0.20;99.90;;;;;;5016394;28;20606;-67
2023/01/22 02:22:39;;;;;;;18.65;8.90;;;0.20;99.90;;;;;;5014616;28;20022;-66
2023/01/22 02:25:06;;;;;;;18.63;9.10;;;0.20;99.90;;;;;;5014433;28;20282;-66
2023/01/22 02:27:32;;;;;;;20.00;9.47;;;0.10;99.90;;;;;;5013853;28;20030;-65
2023/01/22 02:29:58;;;;;;;21.63;9.85;;;0.10;99.90;;;;;;5016696;28;20038;-67
2023/01/22 02:32:23;;;;;;;15.23;8.50;;;0.20;99.90;;;;;;5020992;28;20030;-66
2023/01/22 02:34:49;;;;;;;19.45;10.20;;;0.20;99.90;;;;;;5009635;28;20398;-66
2023/01/22 02:37:15;;;;;;;21.45;9.82;;;0.20;99.90;;;;;;5014211;28;20477;-67
2023/01/22 02:39:40;;;;;;;22.08;10.35;;;0.20;99.90;;;;;;5012244;28;20033;-67
2023/01/22 02:42:07;;;;;;;19.58;9.15;;;0.20;99.90;;;;;;5023341;28;20092;-66
2023/01/22 02:44:33;;;;;;;19.77;9.37;;;0.10;99.90;;;;;;5025852;28;20045;-66
2023/01/22 02:46:59;;;;;;;21.57;10.10;;;0.10;99.90;;;;;;5018323;28;20447;-65
2023/01/22 02:49:24;;;;;;;16.88;9.57;;;0.10;99.90;;;;;;5025045;28;20028;-66
2023/01/22 02:51:50;;;;;;;18.05;9.15;;;0.10;99.90;;;;;;5012062;28;20046;-65
2023/01/22 02:54:16;;;;;;;18.10;9.03;;;0.10;99.90;;;;;;5034593;28;20065;-66
2023/01/22 02:56:41;;;;;;;21.20;10.18;;;0.10;99.90;;;;;;5023566;28;20037;-66
2023/01/22 02:59:07;;;;;;;18.05;9.68;;;0.10;99.90;;;;;;5025758;28;20029;-66
2023/01/22 03:01:32;;;;;;;17.15;9.20;;;0.10;99.90;;;;;;5024472;28;20029;-66
2023/01/22 03:04:09;;;;;;;19.00;9.00;;;0.10;99.90;;;;;;5028233;28;20029;-66
2023/01/22 03:06:37;;;;;;;14.50;8.00;;;0.20;99.90;;;;;;5034407;28;20033;-66
2023/01/22 03:09:03;;;;;;;15.90;9.05;;;0.10;99.90;;;;;;5025055;28;20056;-66
2023/01/22 03:11:30;;;;;;;17.10;9.10;;;0.20;99.90;;;;;;5019774;28;20502;-67
2023/01/22 03:22:14;;;;;;;13.93;8.20;;;0.20;99.90;;;;;;5013498;28;20515;-65
2023/01/22 03:24:40;;;;;;;18.38;8.07;;;0.20;99.90;;;;;;5023681;28;20488;-66
2023/01/22 03:27:06;;;;;;;13.52;7.75;;;0.30;99.90;;;;;;5025651;28;20073;-66
2023/01/22 03:29:32;;;;;;;15.30;7.68;;;0.30;99.90;;;;;;5021028;28;20049;-66
2023/01/22 03:31:57;;;;;;;15.85;8.02;;;0.20;99.90;;;;;;5020574;28;20510;-66
2023/01/22 03:34:25;;;;;;;13.88;7.50;;;0.30;99.90;;;;;;5029607;28;20098;-66
2023/01/22 03:36:50;;;;;;;13.68;7.13;;;0.40;99.90;;;;;;5029323;28;20087;-66
2023/01/22 03:39:17;;;;;;;13.85;7.18;;;0.30;99.90;;;;;;5016421;28;20699;-66
2023/01/22 03:41:42;;;;;;;12.40;6.68;;;0.40;99.90;;;;;;5025497;28;20033;-66
2023/01/22 03:44:10;;;;;;;11.75;6.65;;;0.40;99.90;;;;;;5025371;28;20022;-66
2023/01/22 03:46:36;;;;;;;14.52;7.00;;;0.40;99.90;;;;;;5044838;28;20025;-67
2023/01/22 03:49:02;;;;;;;12.55;6.45;;;0.40;99.90;;;;;;5029410;28;20033;-66
2023/01/22 03:51:28;;;;;;;13.75;6.40;;;0.40;99.90;;;;;;5026307;28;20037;-67
2023/01/22 03:53:53;;;;;;;13.27;6.93;;;0.40;99.90;;;;;;5009341;28;20442;-67
2023/01/22 03:56:21;;;;;;;14.05;7.07;;;0.40;99.90;;;;;;5025950;28;20033;-65
2023/01/22 03:58:47;;;;;;;16.70;8.05;;;0.40;99.90;;;;;;5029336;28;20452;-67
2023/01/22 04:01:20;;;;;;;14.63;8.38;;;0.40;99.90;;;;;;5027121;28;20092;-65
2023/01/22 04:03:46;;;;;;;13.13;7.47;;;0.40;99.90;;;;;;5024630;28;20034;-67
2023/01/22 04:06:12;;;;;;;11.73;7.05;;;0.40;99.90;;;;;;5023636;28;20099;-66
2023/01/22 04:08:40;;;;;;;13.30;7.57;;;0.40;99.90;;;;;;5018197;28;20112;-66
2023/01/22 04:11:06;;;;;;;12.77;6.72;;;0.40;99.90;;;;;;5020468;28;20037;-66
2023/01/22 04:13:34;;;;;;;15.40;7.57;;;0.40;99.90;;;;;;5022720;28;20131;-67
2023/01/22 04:16:01;;;;;;;13.38;6.88;;;0.50;99.90;;;;;;5026162;28;20120;-66
2023/01/22 04:18:26;;;;;;;11.32;6.85;;;0.50;99.90;;;;;;5027219;28;20112;-65
2023/01/22 04:20:53;;;;;;;15.05;7.53;;;0.50;99.90;;;;;;5036142;28;20151;-65
2023/01/22 04:23:20;;;;;;;13.35;7.45;;;0.50;99.90;;;;;;5024341;28;20097;-65
2023/01/22 04:25:46;;;;;;;14.27;7.57;;;0.50;99.90;;;;;;5027808;28;20406;-66
2023/01/22 04:28:14;;;;;;;11.97;6.63;;;0.50;99.90;;;;;;5023439;28;20037;-65
2023/01/22 04:30:40;;;;;;;14.90;8.00;;;0.50;99.90;;;;;;5023344;28;20033;-67
2023/01/22 04:33:07;;;;;;;13.65;7.13;;;0.40;99.90;;;;;;5027169;28;20025;-66
2023/01/22 04:35:34;;;;;;;16.25;7.80;;;0.50;99.90;;;;;;5022032;28;20182;-66
2023/01/22 04:37:59;;;;;;;16.63;8.32;;;0.40;99.90;;;;;;5014648;28;20030;-66
2023/01/22 04:40:25;;;;;;;14.55;7.53;;;0.50;99.90;;;;;;5018141;28;21850;-66
2023/01/22 04:42:51;;;;;;;15.52;8.00;;;0.40;99.90;;;;;;5026688;28;20037;-65
2023/01/22 04:45:17;;;;;;;14.27;8.32;;;0.40;99.90;;;;;;5031174;28;20454;-65
2023/01/22 04:47:46;;;;;;;12.20;6.97;;;0.50;99.90;;;;;;5026783;28;20041;-66
2023/01/22 04:50:16;;;;;;;16.90;8.90;;;0.50;99.90;;;;;;5026895;28;20109;-66
2023/01/22 04:52:42;;;;;;;16.85;8.60;;;0.50;99.90;;;;;;5006289;28;20061;-66
2023/01/22 04:55:09;;;;;;;16.55;8.43;;;0.50;99.90;;;;;;5038370;28;20120;-65
2023/01/22 04:57:34;;;;;;;19.17;7.95;;;0.50;99.90;;;;;;5046790;28;20103;-66
2023/01/22 05:00:00;;;;;;;15.73;7.80;;;0.50;99.90;;;;;;5033479;28;20118;-66
2023/01/22 05:02:25;;;;;;;16.27;8.07;;;0.50;99.90;;;;;;5027160;28;20051;-67
2023/01/22 05:04:51;;;;;;;12.18;7.18;;;0.50;99.90;;;;;;5039103;28;20119;-66
2023/01/22 05:07:16;;;;;;;15.00;8.15;;;0.50;99.90;;;;;;5029795;28;20021;-66
2023/01/22 05:09:42;;;;;;;15.20;8.85;;;0.50;99.90;;;;;;5040148;28;20489;-65
2023/01/22 05:12:08;;;;;;;14.18;8.00;;;0.50;99.90;;;;;;5025121;28;20033;-65
2023/01/22 05:14:33;;;;;;;15.25;9.27;;;0.50;99.90;;;;;;5028971;28;20528;-66
2023/01/22 05:16:59;;;;;;;16.50;8.93;;;0.60;99.90;;;;;;5020838;28;20037;-66
2023/01/22 05:19:24;;;;;;;17.25;8.73;;;0.60;99.90;;;;;;5024808;28;20087;-66
2023/01/22 05:21:50;;;;;;;16.08;8.43;;;0.60;99.90;;;;;;5019634;28;20021;-66
2023/01/22 05:24:17;;;;;;;13.00;7.90;;;0.60;99.90;;;;;;5036447;28;20052;-66
2023/01/22 05:26:43;;;;;;;17.23;9.45;;;0.60;99.90;;;;;;5018078;28;20033;-66
2023/01/22 05:29:09;;;;;;;15.07;8.10;;;0.60;99.90;;;;;;5024502;28;20407;-66
2023/01/22 05:31:35;;;;;;;15.35;7.70;;;0.60;99.90;;;;;;5024493;28;20095;-66
2023/01/22 05:34:01;;;;;;;15.55;8.80;;;0.60;99.90;;;;;;5034513;28;20041;-66
2023/01/22 05:36:26;;;;;;;17.13;8.65;;;0.60;99.90;;;;;;5023183;28;20486;-66
2023/01/22 05:38:52;;;;;;;15.02;8.30;;;0.60;99.90;;;;;;5021095;28;20033;-64
2023/01/22 05:41:18;;;;;;;17.73;8.80;;;0.50;99.90;;;;;;5020963;28;20040;-66
2023/01/22 05:43:43;;;;;;;13.93;7.95;;;0.50;99.90;;;;;;5022742;28;20029;-66
2023/01/22 05:46:09;;;;;;;12.02;7.32;;;0.60;99.90;;;;;;5015419;28;20684;-66
2023/01/22 05:48:34;;;;;;;15.23;7.78;;;0.60;99.90;;;;;;5031066;28;20026;-66
2023/01/22 05:51:05;;;;;;;14.13;8.07;;;0.50;99.90;;;;;;5029076;28;20827;-66
2023/01/22 05:53:31;;;;;;;13.45;7.68;;;0.50;99.90;;;;;;5005255;28;20049;-65
2023/01/22 05:56:02;;;;;;;18.38;8.45;;;0.60;99.90;;;;;;5041483;28;20028;-66
2023/01/22 05:58:28;;;;;;;12.27;8.05;;;0.60;99.90;;;;;;5037340;28;20033;-66
2023/01/22 06:00:54;;;;;;;13.88;7.32;;;0.60;99.90;;;;;;5027520;28;20053;-67
2023/01/22 06:03:20;;;;;;;14.00;7.57;;;0.50;99.90;;;;;;5031770;28;20116;-66
2023/01/22 06:05:45;;;;;;;12.20;7.40;;;0.60;99.90;;;;;;5023280;28;20026;-66
2023/01/22 06:08:11;;;;;;;15.52;8.15;;;0.60;99.90;;;;;;5027848;28;20091;-66
2023/01/22 06:10:36;;;;;;;11.00;6.82;;;0.50;99.90;;;;;;5036117;28;20041;-66
2023/01/22 06:13:02;;;;;;;14.30;7.18;;;0.50;99.90;;;;;;5023168;28;20022;-66
2023/01/22 06:15:27;;;;;;;11.98;7.45;;;0.60;99.90;;;;;;5022932;28;20033;-65
2023/01/22 06:17:53;;;;;;;13.25;7.28;;;0.60;99.90;;;;;;5029449;28;20033;-67
2023/01/22 06:20:19;;;;;;;13.52;7.65;;;0.50;99.90;;;;;;5020001;28;20954;-65
2023/01/22 06:22:44;;;;;;;12.38;7.45;;;0.50;99.90;;;;;;5038814;28;20040;-67
2023/01/22 06:25:10;;;;;;;12.20;6.95;;;0.50;99.90;;;;;;5021941;28;20546;-66
2023/01/22 06:27:35;;;;;;;17.23;8.23;;;0.50;99.90;;;;;;5018956;28;20061;-66
2023/01/22 06:30:01;;;;;;;12.15;7.78;;;0.50;99.90;;;;;;5037130;28;20026;-67
2023/01/22 06:32:26;;;;;;;12.82;7.30;;;0.50;99.90;;;;;;5028565;28;20021;-67
2023/01/22 06:34:52;;;;;;;13.48;7.05;;;0.50;99.90;;;;;;5025382;28;20114;-65
2023/01/22 06:37:20;;;;;;;13.38;7.28;;;0.60;99.90;;;;;;5034772;28;20617;-65
2023/01/22 06:39:45;;;;;;;10.13;6.50;;;0.60;99.90;;;;;;5017310;28;20580;-64
2023/01/22 06:42:11;;;;;;;9.95;6.57;;;0.60;99.90;;;;;;5029060;28;20021;-66
2023/01/22 06:44:36;;;;;;;10.82;6.35;;;0.60;99.90;;;;;;5030099;28;20391;-65
2023/01/22 06:47:02;;;;;;;11.75;6.63;;;0.60;99.90;;;;;;5029108;28;20032;-65
2023/01/22 06:49:27;;;;;;;10.55;7.03;;;0.60;99.90;;;;;;5028313;28;20034;-65
2023/01/22 06:51:53;;;;;;;12.13;7.57;;;0.60;99.90;;;;;;5030830;28;20041;-65
2023/01/22 06:54:18;;;;;;;12.32;7.03;;;0.50;99.90;;;;;;5017341;28;20049;-67
2023/01/22 06:56:44;;;;;;;12.90;7.28;;;0.60;99.90;;;;;;5027683;28;20033;-66
2023/01/22 06:59:10;;;;;;;11.77;6.65;;;0.60;99.90;;;;;;5025691;28;20029;-65
2023/01/22 07:01:35;;;;;;;14.65;7.70;;;0.60;99.90;;;;;;5026383;28;20022;-65
2023/01/22 07:04:01;;;;;;;11.57;7.47;;;0.60;99.90;;;;;;5039423;28;20120;-65
2023/01/22 07:06:26;;;;;;;9.70;6.43;;;0.60;99.90;;;;;;5023848;28;20041;-65
2023/01/22 07:08:52;;;;;;;10.25;6.88;;;0.50;99.90;;;;;;5029211;28;20026;-65
2023/01/22 07:11:18;;;;;;;11.68;6.85;;;0.60;99.90;;;;;;5026248;28;20030;-66
2023/01/22 07:13:44;;;;;;;10.07;5.97;;;0.60;99.90;;;;;;5022717;28;20030;-66
2023/01/22 07:16:10;;;;;;;9.13;5.93;;;0.60;99.90;;;;;;5037297;28;20159;-65
2023/01/22 07:18:35;;;;;;;9.32;6.35;;;0.60;99.90;;;;;;5026374;28;20044;-66
2023/01/22 07:21:02;;;;;;;8.77;5.70;;;0.60;99.90;;;;;;5020829;28;20806;-65
2023/01/22 07:23:28;;;;;;;9.00;5.93;;;0.60;99.90;;;;;;5022080;28;20033;-67
2023/01/22 07:25:54;;;;;;;10.73;6.22;;;0.60;99.90;;;;;;5023724;28;20033;-66
2023/01/22 07:28:20;;;;;;;8.80;5.75;;;0.60;99.90;;;;;;5030342;28;20663;-66
2023/01/22 07:30:46;;;;;;;14.82;8.63;;;0.60;99.90;;;;;;5028096;28;20029;-66
2023/01/22 07:33:13;;;;;;;10.90;6.45;;;0.60;99.90;;;;;;5022850;28;20022;-66
2023/01/22 07:35:38;;;;;;;10.00;5.57;;;0.60;99.90;;;;;;5022705;28;20029;-67
2023/01/22 07:38:05;;;;;;;9.00;5.53;;;0.60;99.90;;;;;;5028659;28;20056;-66
2023/01/22 07:40:30;;;;;;;10.57;5.78;;;0.60;99.90;;;;;;5027155;28;20104;-66
2023/01/22 07:42:56;;;;;;;9.07;6.10;;;0.60;99.90;;;;;;5023631;28;20586;-67
2023/01/22 07:45:23;;;;;;;11.93;6.90;;;0.60;99.90;;;;;;5028025;28;20029;-67
2023/01/22 07:47:59;;;;;;;11.70;6.30;;;0.60;99.90;;;;;;5036443;28;20044;-66
2023/01/22 07:50:29;;;;;;;9.38;6.00;;;0.70;99.90;;;;;;5032571;28;20518;-66
2023/01/22 07:52:55;;;;;;;8.40;5.60;;;0.70;99.90;;;;;;4994240;28;20048;-67
2023/01/22 07:55:22;;;;;;;8.35;5.75;;;0.70;99.90;;;;;;5036385;28;20033;-67
2023/01/22 07:57:47;;;;;;;9.90;5.35;;;0.80;99.90;;;;;;5031252;28;20211;-67
2023/01/22 08:00:17;;;;;;;8.93;5.60;;;0.80;99.90;;;;;;5017815;28;20549;-66
2023/01/22 08:02:42;;;;;;;9.65;6.07;;;0.80;99.90;;;;;;5025569;28;20026;-66
2023/01/22 08:05:12;;;;;;;7.95;5.32;;;0.80;99.90;;;;;;5026433;28;20388;-67
2023/01/22 08:07:37;;;;;;;7.95;4.70;;;0.80;99.90;;;;;;5024000;28;20021;-66
2023/01/22 08:10:04;;;;;;;7.18;4.30;;;0.80;99.90;;;;;;5019735;28;20036;-66
2023/01/22 08:12:29;;;;;;;8.02;4.90;;;0.80;99.90;;;;;;5026855;28;20418;-66
2023/01/22 08:14:55;;;;;;;7.88;4.72;;;0.90;99.90;;;;;;5034296;28;20033;-67
2023/01/22 08:17:20;;;;;;;7.25;4.75;;;0.90;99.90;;;;;;5025662;28;20560;-67
2023/01/22 08:19:46;;;;;;;9.23;5.55;;;0.90;99.90;;;;;;5040688;28;20204;-66
2023/01/22 08:22:11;;;;;;;7.57;5.07;;;0.90;99.90;;;;;;5036011;28;20021;-66
2023/01/22 08:24:37;;;;;;;8.70;5.22;;;0.90;99.90;;;;;;5024942;28;20030;-67
2023/01/22 08:27:02;;;;;;;8.35;4.53;;;0.90;99.90;;;;;;5022660;28;20053;-66
2023/01/22 08:29:28;;;;;;;7.80;5.35;;;1.00;99.90;;;;;;5027067;28;20087;-66
2023/01/22 08:31:54;;;;;;;8.07;5.03;;;1.00;99.90;;;;;;5024378;28;20044;-66
2023/01/22 08:34:20;;;;;;;6.78;4.20;;;1.10;99.90;;;;;;5029846;28;20035;-66
2023/01/22 08:36:46;;;;;;;6.63;4.40;;;1.10;99.90;;;;;;5026019;28;20972;-66
2023/01/22 08:39:12;;;;;;;8.25;4.75;;;1.10;99.90;;;;;;5012558;28;20034;-65
2023/01/22 08:41:39;;;;;;;8.07;4.65;;;1.10;99.90;;;;;;5022908;28;20018;-66
2023/01/22 08:44:04;;;;;;;9.57;5.72;;;1.10;99.90;;;;;;5023636;28;20108;-66
2023/01/22 08:46:30;;;;;;;7.53;4.45;;;1.20;99.90;;;;;;5040158;28;20040;-66
2023/01/22 08:48:56;;;;;;;9.13;4.95;;;1.20;99.90;;;;;;5031030;28;20437;-66
2023/01/22 08:51:23;;;;;;;7.85;4.78;;;1.30;99.90;;;;;;5031769;28;20092;-67
2023/01/22 08:53:50;;;;;;;7.95;4.78;;;1.40;99.90;;;;;;5003880;28;20115;-66
2023/01/22 08:56:15;;;;;;;7.43;4.10;;;1.40;99.90;;;;;;5028578;28;20036;-66
2023/01/22 08:58:41;;;;;;;7.28;3.88;;;1.40;99.90;;;;;;5027422;28;20100;-66
2023/01/22 09:01:06;;;;;;;6.63;3.67;;;1.40;99.90;;;;;;5024381;28;20053;-66
2023/01/22 09:03:32;;;;;;;5.80;3.50;;;1.40;99.90;;;;;;5032763;28;20029;-66
2023/01/22 09:05:58;;;;;;;7.63;4.72;;;1.50;99.90;;;;;;5036335;28;20040;-67
2023/01/22 09:08:23;;;;;;;8.52;4.05;;;1.50;99.90;;;;;;5026181;28;20750;-66
2023/01/22 09:10:49;;;;;;;9.55;4.65;;;1.60;99.90;;;;;;5016806;28;20117;-66
2023/01/22 09:13:15;;;;;;;7.90;4.82;;;1.60;99.90;;;;;;5022801;28;20395;-67
2023/01/22 09:15:40;;;;;;;5.47;3.65;;;1.70;99.90;;;;;;5023628;28;20029;-66
2023/01/22 09:18:06;;;;;;;6.28;3.80;;;1.70;99.90;;;;;;5023678;28;20550;-66
2023/01/22 09:20:31;;;;;;;5.40;3.42;;;1.70;99.90;;;;;;5030252;28;20506;-66
2023/01/22 09:22:57;;;;;;;5.82;3.50;;;1.70;99.90;;;;;;5024939;28;20065;-67
2023/01/22 09:25:23;;;;;;;5.05;3.30;;;1.60;99.90;;;;;;5023877;28;20447;-66
2023/01/22 09:27:48;;;;;;;4.88;3.63;;;1.70;99.90;;;;;;5015323;28;20036;-65
2023/01/22 09:30:14;;;;;;;4.70;3.72;;;1.60;99.90;;;;;;5020760;28;20033;-66
2023/01/22 09:32:40;;;;;;;6.05;3.55;;;1.70;99.90;;;;;;5024495;28;20091;-66
2023/01/22 09:35:07;;;;;;;6.55;3.50;;;1.70;99.90;;;;;;5020217;28;20042;-66
2023/01/22 09:37:33;;;;;;;7.05;4.50;;;1.80;99.90;;;;;;5019979;28;20033;-65
2023/01/22 09:39:58;;;;;;;6.00;3.55;;;1.80;99.90;;;;;;5015013;28;20024;-65
2023/01/22 09:42:42;;;;;;;7.30;3.65;;;1.80;99.90;;;;;;5027418;28;20034;-66
2023/01/22 09:45:13;;;;;;;6.95;3.85;;;1.80;99.90;;;;;;5024371;28;20022;-66
2023/01/22 09:47:41;;;;;;;16.23;9.13;;;1.90;99.90;;;;;;5018926;28;20933;-66
2023/01/22 09:50:13;;;;;;;6.10;4.50;;;2.00;99.90;;;;;;5028562;28;20037;-66
2023/01/22 09:52:39;;;;;;;6.38;4.40;;;2.10;99.90;;;;;;5006927;28;20025;-65
2023/01/22 09:55:13;;;;;;;7.13;5.03;;;2.30;99.90;;;;;;5018995;28;20103;-66
2023/01/22 09:57:43;;;;;;;6.55;4.47;;;2.40;99.90;;;;;;5020775;28;20021;-66
2023/01/22 10:00:19;;;;;;;6.28;3.72;;;2.30;99.90;;;;;;5027092;28;20037;-66
2023/01/22 10:02:53;;;;;;;5.03;3.25;;;2.40;99.90;;;;;;5023539;28;20029;-66
2023/01/22 10:05:41;;;;;;;5.88;3.65;;;2.60;99.90;;;;;;5025950;28;20025;-65
2023/01/22 10:08:12;;;;;;;6.32;4.00;;;2.70;99.90;;;;;;5036242;28;20033;-65
2023/01/22 10:10:38;;;;;;;6.40;3.70;;;2.70;99.90;;;;;;5023386;28;20021;-65
2023/01/22 10:13:26;;;;;;;5.15;3.83;;;2.60;99.90;;;;;;5015137;28;20037;-65
2023/01/22 10:15:53;;;;;;;4.38;2.95;;;2.70;99.90;;;;;;5024673;28;20037;-66
2023/01/22 10:18:46;;;;;;;4.80;3.35;;;2.80;99.90;;;;;;5023819;28;20877;-66
2023/01/22 10:21:22;;;;;;;5.85;4.00;;;2.70;99.90;;;;;;5021973;28;20021;-66
2023/01/22 10:23:49;;;;;;;7.15;4.00;;;2.70;99.90;;;;;;5027301;28;20041;-66
2023/01/22 10:26:47;;;;;;;6.68;4.72;;;2.80;99.90;;;;;;5018614;28;20589;-65
2023/01/22 10:29:33;;;;;;;6.28;3.78;;;2.80;99.90;;;;;;5021259;28;20017;-65
2023/01/22 10:32:00;;;;;;;12.85;6.25;;;2.70;99.90;;;;;;5025307;28;20040;-67
2023/01/22 10:34:35;;;;;;;8.55;4.95;;;2.60;99.90;;;;;;5025965;28;20612;-66
2023/01/22 10:37:16;;;;;;;7.80;4.45;;;2.60;99.90;;;;;;5021028;28;20032;-66
2023/01/22 10:39:46;;;;;;;11.07;5.00;;;2.60;99.90;;;;;;5019287;28;20108;-65
2023/01/22 10:42:16;;;;;;;6.80;3.92;;;2.60;99.90;;;;;;5031240;28;20096;-65
2023/01/22 10:44:42;;;;;;;4.70;3.33;;;2.70;99.90;;;;;;5026920;28;20112;-66
2023/01/22 10:47:17;;;;;;;4.45;2.83;;;2.80;99.90;;;;;;5023871;28;20113;-65
2023/01/22 10:49:43;;;;;;;5.63;2.92;;;2.60;99.90;;;;;;5031834;28;20030;-66
2023/01/22 10:52:26;;;;;;;6.47;3.50;;;2.80;99.90;;;;;;5033599;28;20091;-66
2023/01/22 10:54:57;;;;;;;4.50;2.78;;;2.90;99.90;;;;;;5004174;28;20084;-66
2023/01/22 10:57:32;;;;;;;4.20;2.95;;;3.10;99.90;;;;;;5030221;28;20029;-66
2023/01/22 11:00:13;;;;;;;3.92;2.80;;;3.20;99.90;;;;;;5016367;28;20032;-66
2023/01/22 11:02:41;;;;;;;5.40;2.72;;;3.40;99.90;;;;;;5024707;28;20420;-65
2023/01/22 11:05:23;;;;;;;4.05;2.78;;;3.40;99.90;;;;;;5026363;28;20026;-66
2023/01/22 11:08:05;;;;;;;3.50;2.85;;;3.40;99.90;;;;;;4999667;28;20057;-65
2023/01/22 11:10:53;;;;;;;4.30;2.83;;;3.30;99.90;;;;;;5018317;28;20515;-66
2023/01/22 11:13:45;;;;;;;2.83;2.00;;;3.40;99.90;;;;;;5040563;28;20080;-65
2023/01/22 11:16:20;;;;;;;3.78;2.45;;;3.20;99.90;;;;;;5030055;28;20029;-66
2023/01/22 11:19:11;;;;;;;3.15;2.30;;;3.20;99.90;;;;;;5023393;28;20029;-65
2023/01/22 11:21:45;;;;;;;3.78;2.40;;;3.20;99.90;;;;;;5026512;28;20135;-65
2023/01/22 11:24:45;;;;;;;3.20;2.35;;;3.00;99.90;;;;;;5021323;28;20022;-66
2023/01/22 11:27:34;;;;;;;4.30;2.88;;;3.10;99.90;;;;;;5024574;28;20108;-65
2023/01/22 11:30:08;;;;;;;4.60;2.95;;;3.10;99.90;;;;;;5026509;28;20044;-65
2023/01/22 11:32:58;;;;;;;4.18;2.75;;;3.10;99.90;;;;;;5022093;28;20034;-65
2023/01/22 11:35:31;;;;;;;7.18;3.42;;;3.10;99.90;;;;;;5027671;28;20022;-66
2023/01/22 11:38:17;;;;;;;3.03;2.22;;;3.10;99.90;;;;;;5020347;28;20033;-65
2023/01/22 11:40:51;;;;;;;5.07;2.90;;;3.20;99.90;;;;;;5022374;28;20033;-66
2023/01/22 11:43:46;;;;;;;7.93;4.35;;;3.10;99.90;;;;;;5035870;28;20032;-65
2023/01/22 11:46:42;;;;;;;14.63;5.10;;;2.90;99.90;;;;;;5022188;28;20025;-65
2023/01/22 11:49:35;;;;;;;7.43;3.67;;;2.90;99.90;;;;;;5031121;28;20167;-66
2023/01/22 11:52:13;;;;;;;9.60;5.57;;;2.80;99.90;;;;;;5023947;28;20454;-65
2023/01/22 11:54:48;;;;;;;10.70;4.93;;;2.80;99.90;;;;;;5010589;28;20048;-66
2023/01/22 11:57:26;;;;;;;19.73;6.70;;;2.80;99.90;;;;;;5041508;28;20033;-66
2023/01/22 11:59:55;;;;;;;12.13;5.28;;;2.80;99.90;;;;;;5032115;28;20034;-65
2023/01/22 12:02:38;;;;;;;20.45;7.78;;;2.80;99.90;;;;;;5025407;28;20557;-65
2023/01/22 12:05:10;;;;;;;8.73;4.05;;;2.70;99.90;;;;;;5030466;28;20029;-65
2023/01/22 12:08:11;;;;;;;12.77;6.10;;;2.70;99.90;;;;;;5023253;28;20029;-64
2023/01/22 12:11:01;;;;;;;6.25;3.50;;;2.70;99.90;;;;;;5015193;28;20047;-65
2023/01/22 12:13:35;;;;;;;4.72;3.25;;;2.70;99.90;;;;;;5037744;28;20515;-65
2023/01/22 12:16:21;;;;;;;5.88;3.83;;;2.70;99.90;;;;;;5028527;28;20112;-65
2023/01/22 12:18:56;;;;;;;4.55;3.22;;;2.60;99.90;;;;;;5022437;28;20059;-65
2023/01/22 12:21:56;;;;;;;4.55;2.70;;;2.60;99.90;;;;;;5030993;28;20049;-66
2023/01/22 12:24:38;;;;;;;3.88;2.47;;;2.50;99.90;;;;;;5025890;28;20076;-65
2023/01/22 12:27:21;;;;;;;3.83;2.70;;;2.60;99.90;;;;;;5022791;28;20515;-66
2023/01/22 12:30:18;;;;;;;14.43;7.38;;;2.60;99.90;;;;;;5017392;28;20025;-66
2023/01/22 12:32:48;;;;;;;6.57;4.28;;;2.60;99.90;;;;;;5017360;28;20318;-63
2023/01/22 12:35:19;;;;;;;11.07;6.07;;;2.60;99.90;;;;;;5015935;28;20040;-65
2023/01/22 12:37:51;;;;;;;6.55;3.83;;;2.60;99.90;;;;;;5020133;28;20049;-65
2023/01/22 12:40:46;;;;;;;6.45;4.18;;;2.60;99.90;;;;;;5011523;28;20052;-66
2023/01/22 12:43:12;;;;;;;25.33;9.48;;;2.60;99.90;;;;;;5020719;28;20029;-65
2023/01/22 12:45:48;;;;;;;12.57;5.53;;;2.70;99.90;;;;;;5023108;28;20041;-65
2023/01/22 12:48:30;;;;;;;6.93;3.40;;;2.60;99.90;;;;;;5024587;28;20038;-65
2023/01/22 12:50:57;;;;;;;10.35;4.30;;;2.70;99.90;;;;;;5027894;28;20109;-65
2023/01/22 12:53:28;;;;;;;6.28;3.17;;;2.60;99.90;;;;;;5010739;28;20025;-66
2023/01/22 12:56:01;;;;;;;14.60;6.97;;;2.60;99.90;;;;;;5033256;28;20083;-65
2023/01/22 12:58:29;;;;;;;24.15;8.13;;;2.60;99.90;;;;;;5034908;28;20053;-65
2023/01/22 13:01:19;;;;;;;11.15;4.78;;;2.60;99.90;;;;;;5017015;28;20041;-65
2023/01/22 13:04:00;;;;;;;27.17;10.48;;;2.70;99.90;;;;;;5021666;28;20525;-66
2023/01/22 13:06:38;;;;;;;23.40;7.80;;;2.60;99.90;;;;;;5028391;28;20040;-66
2023/01/22 13:09:20;;;;;;;8.32;4.43;;;2.50;99.90;;;;;;5019305;28;20438;-66